Hewa Airstrip


Codes: AYHJ/
Name: Hewa Airstrip
City: Hewa
Country: Papua New Guinea
Elevation: 5000 ft.

Photos at Hewa Airstrip


   Photos courtesy of SpottingLog. You can add your own sightings and photos by signing up for a free trial today.



No photos found.

Weather at Hewa Airstrip


Time (UTC)DescriptionTempratureWindCloud coverageVisibilityPressureHumidity
18-Apr-2024 00:00Light Rain20°C2 mph, N100%9717m1014hPa95%
18-Apr-2024 03:00Moderate Rain21°C2 mph, N93%10000m1012hPa95%
18-Apr-2024 06:00Light Rain22°C2 mph, N91%10000m1010hPa92%
18-Apr-2024 09:00Light Rain19°C2 mph, N56%9383m1013hPa99%
18-Apr-2024 12:00Light Rain18°C2 mph, E78%7651m1015hPa99%
18-Apr-2024 15:00Moderate Rain18°C2 mph, E100%8462m1014hPa100%
18-Apr-2024 18:00Light Rain18°C0 mph, SE100%10000m1013hPa99%
18-Apr-2024 21:00Light Rain18°C2 mph, SE100%10000m1015hPa99%
19-Apr-2024 00:00Light Rain22°C2 mph, NW99%10000m1014hPa85%
19-Apr-2024 03:00Light Rain23°C2 mph, NW100%10000m1012hPa83%
19-Apr-2024 06:00Light Rain23°C2 mph, N92%10000m1010hPa77%
19-Apr-2024 09:00Light Rain19°C0 mph, N88%10000m1013hPa94%
19-Apr-2024 12:00Overcast Clouds18°C2 mph, E94%10000m1015hPa95%
19-Apr-2024 15:00Overcast Clouds17°C2 mph, SE100%10000m1015hPa95%
19-Apr-2024 18:00Overcast Clouds16°C2 mph, SE100%10000m1015hPa98%
19-Apr-2024 21:00Overcast Clouds16°C2 mph, SE100%10000m1016hPa95%
20-Apr-2024 00:00Overcast Clouds24°C2 mph, NW100%10000m1014hPa61%
20-Apr-2024 03:00Overcast Clouds27°C4 mph, NW100%10000m1010hPa50%
20-Apr-2024 06:00Light Rain25°C4 mph, N100%10000m1009hPa68%
20-Apr-2024 09:00Light Rain19°C2 mph, NE100%10000m1013hPa99%
20-Apr-2024 12:00Light Rain18°C2 mph, SE99%10000m1016hPa99%
20-Apr-2024 15:00Overcast Clouds18°C2 mph, SE86%10000m1015hPa98%
20-Apr-2024 18:00Overcast Clouds18°C2 mph, SE93%10000m1014hPa95%
20-Apr-2024 21:00Overcast Clouds17°C2 mph, SE87%10000m1016hPa97%
21-Apr-2024 00:00Broken Clouds25°C2 mph, NW59%10000m1014hPa58%
21-Apr-2024 03:00Clear Sky28°C4 mph, NW0%10000m1009hPa46%
21-Apr-2024 06:00Light Rain25°C4 mph, N8%7635m1009hPa74%
21-Apr-2024 09:00Light Rain19°C2 mph, NE31%10000m1013hPa100%
21-Apr-2024 12:00Scattered Clouds19°C0 mph, E50%10000m1014hPa99%
21-Apr-2024 15:00Broken Clouds19°C0 mph, SE79%10000m1013hPa99%
21-Apr-2024 18:00Broken Clouds18°C0 mph, SE79%10000m1012hPa99%
21-Apr-2024 21:00Broken Clouds18°C2 mph, SE70%10000m1014hPa99%
22-Apr-2024 00:00Broken Clouds25°C2 mph, NW70%10000m1012hPa66%
22-Apr-2024 03:00Light Rain27°C4 mph, NW78%10000m1008hPa57%
22-Apr-2024 06:00Light Rain22°C4 mph, N65%10000m1008hPa93%
22-Apr-2024 09:00Light Rain19°C2 mph, NE63%10000m1012hPa100%
22-Apr-2024 12:00Light Rain19°C0 mph, NE74%10000m1014hPa99%
22-Apr-2024 15:00Overcast Clouds19°C0 mph, SE100%10000m1013hPa99%
22-Apr-2024 18:00Overcast Clouds19°C0 mph, SE100%10000m1012hPa99%
22-Apr-2024 21:00Overcast Clouds19°C0 mph, SE98%10000m1013hPa99%